createdAt,value
2018-11-13T00:01:59.778Z,100542.76
2018-11-13T00:07:03.257Z,100536.81
2018-11-13T00:12:06.581Z,100542.07
2018-11-13T00:17:09.941Z,100534.06
2018-11-13T00:22:13.369Z,100546.41
2018-11-13T00:27:16.978Z,100546.08
2018-11-13T00:32:20.433Z,100554.48
2018-11-13T00:37:23.820Z,100549.13
2018-11-13T00:42:27.532Z,100565.34
2018-11-13T00:47:30.955Z,100551.56
2018-11-13T00:52:34.406Z,100546.84
2018-11-13T00:57:37.957Z,100548.31
2018-11-13T01:02:41.537Z,100543.62
2018-11-13T01:07:46.096Z,100548.22
2018-11-13T01:12:49.633Z,100542.64
2018-11-13T01:17:53.191Z,100546.30
2018-11-13T01:22:57.646Z,100550.74
2018-11-13T01:28:01.230Z,100553.77
2018-11-13T01:33:05.145Z,100544.16
2018-11-13T01:38:08.458Z,100556.88
2018-11-13T01:43:12.173Z,100564.94
2018-11-13T01:48:15.703Z,100561.56
2018-11-13T01:53:19.673Z,100570.97
2018-11-13T01:58:23.905Z,100570.83
2018-11-13T02:03:27.557Z,100569.57
2018-11-13T02:08:30.934Z,100577.37
2018-11-13T02:13:34.486Z,100566.28
2018-11-13T02:18:38.965Z,100560.69
2018-11-13T02:23:43.246Z,100557.41
2018-11-13T02:28:46.797Z,100554.57
2018-11-13T02:33:50.649Z,100559.22
2018-11-13T02:38:54.302Z,100573.67
2018-11-13T02:43:58.746Z,100575.45
2018-11-13T02:49:02.456Z,100575.15
2018-11-13T02:54:06.037Z,100571.97
2018-11-13T02:59:10.737Z,100565.87
2018-11-13T03:04:14.280Z,100568.86
2018-11-13T03:09:17.966Z,100563.52
2018-11-13T03:14:22.614Z,100536.17
2018-11-13T03:19:26.105Z,100529.50
2018-11-13T03:24:30.548Z,100553.20
2018-11-13T03:29:34.781Z,100561.20
2018-11-13T03:34:38.246Z,100563.15
2018-11-13T03:39:41.601Z,100560.48
2018-11-13T03:44:45.950Z,100554.59
2018-11-13T03:49:49.606Z,100568.69
2018-11-13T03:54:53.724Z,100580.89
2018-11-13T03:59:57.339Z,100569.41
2018-11-13T04:05:02.136Z,100544.41
2018-11-13T04:10:06.169Z,100557.34
2018-11-13T04:15:11.269Z,100541.85
2018-11-13T04:20:16.212Z,100540.00
2018-11-13T04:25:19.631Z,100540.83
2018-11-13T04:30:22.917Z,100547.70
2018-11-13T04:35:26.273Z,100556.59
2018-11-13T04:40:29.653Z,100545.75
2018-11-13T04:45:32.951Z,100544.59
2018-11-13T04:50:36.242Z,100557.92
2018-11-13T04:55:39.634Z,100566.05
2018-11-13T05:00:43.160Z,100566.74
2018-11-13T05:05:46.527Z,100577.09
2018-11-13T05:10:49.941Z,100585.10
2018-11-13T05:15:53.306Z,100561.92
2018-11-13T05:20:56.695Z,100583.01
2018-11-13T05:26:00.054Z,100574.53
2018-11-13T05:31:03.398Z,100576.86
2018-11-13T05:36:07.092Z,100585.50
2018-11-13T05:41:10.550Z,100596.23
2018-11-13T05:46:14.080Z,100614.64
2018-11-13T05:51:17.562Z,100620.69
2018-11-13T05:56:20.902Z,100611.66
2018-11-13T06:01:24.189Z,100623.35
2018-11-13T06:06:27.529Z,100622.39
2018-11-13T06:11:31.637Z,100646.02
2018-11-13T06:16:35.009Z,100659.10
2018-11-13T06:21:39.233Z,100684.97
2018-11-13T06:26:42.570Z,100695.52
2018-11-13T06:31:45.869Z,100710.90
2018-11-13T06:36:49.220Z,100707.92
2018-11-13T06:41:52.561Z,100715.83
2018-11-13T06:46:55.837Z,100702.30
2018-11-13T06:51:59.232Z,100720.97
2018-11-13T06:57:02.561Z,100723.31
2018-11-13T07:02:06.698Z,100731.46
2018-11-13T07:07:09.985Z,100716.48
2018-11-13T07:12:13.505Z,100729.00
2018-11-13T07:17:17.067Z,100715.52
2018-11-13T07:22:20.341Z,100692.85
2018-11-13T07:27:23.732Z,100717.42
2018-11-13T07:32:27.434Z,100725.82
2018-11-13T07:37:30.744Z,100731.78
2018-11-13T07:42:34.113Z,100732.41
2018-11-13T07:47:37.642Z,100744.04
2018-11-13T07:52:40.748Z,100736.34
2018-11-13T07:57:44.300Z,100739.84
2018-11-13T08:02:50.935Z,100768.98
2018-11-13T08:07:54.258Z,100766.27
2018-11-13T08:12:57.758Z,100764.82
2018-11-13T08:18:00.921Z,100766.28
2018-11-13T08:23:04.232Z,100786.62
2018-11-13T08:28:08.057Z,100801.81
2018-11-13T08:33:11.522Z,100802.19
2018-11-13T08:38:14.894Z,100805.15
2018-11-13T08:43:18.197Z,100823.36
2018-11-13T08:48:21.536Z,100827.43
2018-11-13T08:53:24.858Z,100831.11
2018-11-13T08:58:28.713Z,100830.99
2018-11-13T09:03:32.108Z,100838.16
2018-11-13T09:08:35.416Z,100850.02
2018-11-13T09:13:38.767Z,100866.05
2018-11-13T09:18:42.958Z,100870.12
2018-11-13T09:23:46.408Z,100868.50
2018-11-13T09:28:49.762Z,100886.16
2018-11-13T09:33:53.145Z,100887.92
2018-11-13T09:38:56.533Z,100881.77
2018-11-13T09:43:59.985Z,100900.31
2018-11-13T09:49:03.430Z,100897.91
2018-11-13T09:54:06.777Z,100898.81
2018-11-13T09:59:10.079Z,100906.89
2018-11-13T10:04:14.247Z,100902.06
2018-11-13T10:09:16.848Z,100913.83
2018-11-13T10:14:20.183Z,100911.86
2018-11-13T10:19:23.557Z,100921.30
2018-11-13T10:24:27.434Z,100902.30
2018-11-13T10:29:31.387Z,100906.89
2018-11-13T10:34:41.725Z,100902.55
2018-11-13T10:39:45.446Z,100912.18
2018-11-13T10:44:48.712Z,100910.59
2018-11-13T10:49:52.449Z,100918.31
2018-11-13T10:54:55.804Z,100918.70
2018-11-13T10:59:59.180Z,100927.38
2018-11-13T11:05:07.953Z,100930.44
2018-11-13T11:10:11.225Z,100923.28
2018-11-13T11:15:14.545Z,100932.03
2018-11-13T11:20:17.904Z,100932.87
2018-11-13T11:25:21.258Z,100955.34
2018-11-13T11:30:25.363Z,100999.89
2018-11-13T11:35:29.537Z,100989.95
2018-11-13T11:40:33.936Z,100992.93
2018-11-13T11:45:37.783Z,100976.05
2018-11-13T11:50:42.709Z,100983.00
2018-11-13T11:55:46.997Z,100991.94
2018-11-13T12:00:51.163Z,100967.11
2018-11-13T12:05:55.273Z,100976.94
2018-11-13T12:10:58.613Z,100963.97
2018-11-13T12:16:01.895Z,100978.56
2018-11-13T12:21:05.469Z,100966.92
2018-11-13T12:26:09.403Z,100959.55
2018-11-13T12:31:12.912Z,100963.48
2018-11-13T12:36:17.163Z,100977.68
2018-11-13T12:41:20.887Z,100975.81
2018-11-13T12:46:24.272Z,100966.39
2018-11-13T12:51:33.142Z,100973.22
2018-11-13T12:56:36.496Z,100973.47
2018-11-13T13:01:39.856Z,100969.31
2018-11-13T13:06:43.125Z,100973.52
2018-11-13T13:11:46.393Z,100978.67
2018-11-13T13:16:49.693Z,100985.03
2018-11-13T13:21:52.988Z,100989.42
2018-11-13T13:26:56.343Z,100995.36
2018-11-13T13:31:59.910Z,101002.95
2018-11-13T13:37:03.306Z,100997.70
2018-11-13T13:42:06.757Z,100999.13
2018-11-13T13:47:10.145Z,101008.50
2018-11-13T13:52:13.465Z,101003.44
2018-11-13T13:57:16.786Z,101006.31
2018-11-13T14:02:20.209Z,101016.66
2018-11-13T14:07:23.520Z,101022.59
2018-11-13T14:12:26.922Z,101027.13
2018-11-13T14:17:30.201Z,101029.51
2018-11-13T14:22:33.577Z,101025.39
2018-11-13T14:27:36.865Z,101035.48
2018-11-13T14:32:40.660Z,101031.28
2018-11-13T14:37:44.090Z,101040.39
2018-11-13T14:42:48.015Z,101046.73
2018-11-13T14:47:54.542Z,101039.53
2018-11-13T14:52:58.207Z,101053.47
2018-11-13T14:58:02.639Z,101042.05
2018-11-13T15:03:07.891Z,101062.70
2018-11-13T15:08:11.603Z,101058.13
2018-11-13T15:13:15.297Z,101065.69
2018-11-13T15:18:18.589Z,101078.61
2018-11-13T15:23:21.838Z,101081.67
2018-11-13T15:28:25.390Z,101097.33
2018-11-13T15:33:29.486Z,101097.34
2018-11-13T15:38:33.038Z,101115.50
2018-11-13T15:43:36.585Z,101125.02
2018-11-13T15:48:40.341Z,101126.02
2018-11-13T15:53:44.569Z,101129.00
2018-11-13T15:58:48.602Z,101136.67
2018-11-13T16:03:52.616Z,101140.84
2018-11-13T16:08:57.311Z,101149.64
2018-11-13T16:19:43.381Z,101153.29
2018-11-13T16:24:51.954Z,101160.73
2018-11-13T16:29:57.629Z,101166.21
2018-11-13T16:35:01.932Z,101180.04
2018-11-13T16:40:08.608Z,101180.19
2018-11-13T16:45:16.344Z,101180.19
2018-11-13T16:50:22.935Z,101177.36
2018-11-13T16:55:32.019Z,101189.00
2018-11-13T17:00:36.005Z,101194.97
2018-11-13T17:05:40.048Z,101196.78
2018-11-13T17:10:44.081Z,101202.43
2018-11-13T17:15:47.692Z,101215.91
2018-11-13T17:20:51.075Z,101224.55
2018-11-13T17:25:54.434Z,101260.16
2018-11-13T17:30:57.785Z,101286.08
2018-11-13T17:36:10.037Z,101328.15
2018-11-13T17:41:20.949Z,101331.38
2018-11-13T17:46:37.551Z,101318.41
2018-11-13T17:51:43.545Z,101299.05
2018-11-13T17:57:00.305Z,101297.85
2018-11-13T18:02:08.726Z,101301.17
2018-11-13T18:18:22.137Z,101327.23
2018-11-13T18:23:25.713Z,101342.54
2018-11-13T18:28:29.641Z,101342.17
2018-11-13T18:33:33.021Z,101337.16
2018-11-13T18:38:36.643Z,101336.45
2018-11-13T18:43:40.039Z,101338.98
2018-11-13T18:48:43.486Z,101338.97
2018-11-13T18:53:47.453Z,101338.86
2018-11-13T18:58:51.275Z,101350.09
2018-11-13T19:03:55.277Z,101350.50
2018-11-13T19:08:58.718Z,101355.31
2018-11-13T19:14:02.595Z,101351.70
2018-11-13T19:19:06.024Z,101352.87
2018-11-13T19:24:11.169Z,101359.88
2018-11-13T19:29:14.536Z,101368.45
2018-11-13T19:34:20.856Z,101371.28
2018-11-13T19:39:26.531Z,101376.75
2018-11-13T19:50:39.228Z,101373.22
2018-11-13T19:55:43.397Z,101382.52
2018-11-13T20:00:47.041Z,101389.30
2018-11-13T20:05:51.277Z,101394.10
2018-11-13T20:10:54.876Z,101391.78
2018-11-13T20:15:58.260Z,101403.52
2018-11-13T20:21:14.337Z,101411.14
2018-11-13T20:26:19.975Z,101416.16
2018-11-13T20:31:23.875Z,101414.61
2018-11-13T20:36:27.618Z,101414.24
2018-11-13T20:41:31.743Z,101422.52
2018-11-13T20:46:35.397Z,101420.16
2018-11-13T20:51:38.953Z,101424.73
2018-11-13T20:56:42.498Z,101429.86
2018-11-13T21:01:46.145Z,101427.39
2018-11-13T21:06:49.596Z,101428.05
2018-11-13T21:11:53.193Z,101436.66
2018-11-13T21:16:56.592Z,101441.95
2018-11-13T21:22:00.292Z,101443.41
2018-11-13T21:27:04.222Z,101449.37
2018-11-13T21:32:08.690Z,101455.92
2018-11-13T21:37:13.444Z,101462.39
2018-11-13T21:42:31.630Z,101471.13
2018-11-13T21:47:35.461Z,101476.19
2018-11-13T21:52:39.122Z,101472.72
2018-11-13T21:57:42.728Z,101479.84
2018-11-13T22:02:48.629Z,101478.77
2018-11-13T22:07:52.016Z,101489.58
2018-11-13T22:12:55.668Z,101494.10
2018-11-13T22:17:59.384Z,101499.67
2018-11-13T22:23:02.780Z,101505.13
2018-11-13T22:28:06.764Z,101514.89
2018-11-13T22:33:10.041Z,101515.72
2018-11-13T22:38:14.133Z,101512.36
2018-11-13T22:43:17.654Z,101513.27
2018-11-13T22:48:21.181Z,101520.72
2018-11-13T22:53:24.675Z,101521.47
2018-11-13T22:58:28.282Z,101522.36
2018-11-13T23:03:31.827Z,101517.39
2018-11-13T23:08:35.309Z,101523.77
2018-11-13T23:13:38.885Z,101532.63
2018-11-13T23:18:42.801Z,101524.61
2018-11-13T23:23:46.343Z,101525.59
